createdAt,value
2019-02-18T00:01:25.103Z,25.43
2019-02-18T00:03:52.056Z,25.40
2019-02-18T00:06:19.057Z,23.83
2019-02-18T00:08:45.974Z,22.13
2019-02-18T00:11:12.961Z,27.53
2019-02-18T00:13:39.849Z,24.33
2019-02-18T00:16:06.741Z,22.90
2019-02-18T00:18:33.543Z,22.43
2019-02-18T00:21:00.383Z,25.70
2019-02-18T00:23:27.113Z,22.70
2019-02-18T00:25:59.269Z,23.73
2019-02-18T00:28:28.132Z,27.57
2019-02-18T00:30:55.571Z,23.97
2019-02-18T00:33:22.616Z,26.30
2019-02-18T00:35:49.591Z,22.40
2019-02-18T00:38:16.447Z,23.00
2019-02-18T00:40:43.312Z,24.37
2019-02-18T00:43:10.180Z,22.63
2019-02-18T00:45:37.059Z,22.47
2019-02-18T00:48:03.808Z,22.43
2019-02-18T00:50:30.576Z,23.97
2019-02-18T00:52:57.295Z,22.50
2019-02-18T00:55:24.209Z,25.37
2019-02-18T00:57:51.095Z,18.63
2019-02-18T01:00:18.157Z,20.17
2019-02-18T01:02:45.132Z,22.93
2019-02-18T01:05:12.543Z,19.87
2019-02-18T01:07:39.380Z,25.93
2019-02-18T01:10:06.882Z,24.47
2019-02-18T01:12:33.767Z,27.00
2019-02-18T01:15:00.579Z,19.70
2019-02-18T01:17:29.318Z,20.00
2019-02-18T01:19:58.522Z,24.33
2019-02-18T01:22:27.308Z,22.10
2019-02-18T01:24:54.318Z,23.03
2019-02-18T01:27:21.182Z,22.17
2019-02-18T01:29:48.180Z,28.13
2019-02-18T01:32:22.149Z,26.80
2019-02-18T01:34:48.995Z,28.13
2019-02-18T01:37:15.755Z,22.23
2019-02-18T01:39:42.487Z,26.27
2019-02-18T01:42:09.327Z,26.10
2019-02-18T01:44:36.203Z,26.77
2019-02-18T01:47:03.148Z,26.27
2019-02-18T01:49:30.014Z,26.23
2019-02-18T01:51:56.880Z,30.20
2019-02-18T01:54:23.617Z,24.80
2019-02-18T01:56:50.463Z,26.13
2019-02-18T01:59:17.336Z,22.63
2019-02-18T02:01:44.220Z,23.27
2019-02-18T02:04:11.112Z,24.60
2019-02-18T02:06:38.007Z,28.07
2019-02-18T02:09:07.727Z,29.07
2019-02-18T02:11:34.558Z,25.47
2019-02-18T02:14:01.517Z,25.57
2019-02-18T02:16:28.270Z,20.63
2019-02-18T02:18:55.034Z,24.60
2019-02-18T02:21:21.823Z,21.50
2019-02-18T02:23:48.703Z,23.83
2019-02-18T02:26:15.749Z,23.40
2019-02-18T02:28:42.607Z,22.53
2019-02-18T02:31:09.375Z,22.90
2019-02-18T02:33:36.216Z,22.07
2019-02-18T02:36:03.417Z,20.77
2019-02-18T02:38:30.703Z,20.33
2019-02-18T02:40:58.104Z,21.00
2019-02-18T02:43:29.434Z,19.50
2019-02-18T02:45:56.163Z,25.40
2019-02-18T02:48:24.825Z,23.27
2019-02-18T02:50:56.711Z,26.03
2019-02-18T02:53:23.656Z,24.90
2019-02-18T02:55:51.814Z,21.27
2019-02-18T02:58:18.799Z,21.03
2019-02-18T03:00:45.906Z,22.73
2019-02-18T03:03:12.923Z,22.53
2019-02-18T03:05:39.981Z,21.57
2019-02-18T03:08:06.781Z,23.23
2019-02-18T03:10:33.725Z,20.10
2019-02-18T03:13:00.665Z,26.00
2019-02-18T03:15:27.399Z,27.80
2019-02-18T03:17:54.415Z,19.83
2019-02-18T03:20:21.320Z,21.97
2019-02-18T03:22:48.245Z,25.00
2019-02-18T03:25:26.214Z,24.13
2019-02-18T03:28:01.900Z,25.53
2019-02-18T03:30:37.476Z,23.50
2019-02-18T03:33:04.606Z,26.13
2019-02-18T03:35:31.393Z,26.60
2019-02-18T03:38:08.851Z,25.80
2019-02-18T03:40:40.849Z,29.47
2019-02-18T03:43:08.565Z,24.53
2019-02-18T03:45:35.737Z,24.50
2019-02-18T03:48:13.542Z,25.17
2019-02-18T03:50:42.997Z,22.97
2019-02-18T03:53:10.180Z,24.97
2019-02-18T03:55:37.357Z,25.83
2019-02-18T03:58:04.970Z,26.00
2019-02-18T04:00:31.994Z,24.70
2019-02-18T04:02:58.847Z,25.90
2019-02-18T04:05:25.945Z,25.13
2019-02-18T04:07:52.900Z,25.00
2019-02-18T04:10:19.705Z,23.83
2019-02-18T04:12:46.441Z,24.43
2019-02-18T04:15:13.587Z,27.10
2019-02-18T04:17:40.455Z,26.43
2019-02-18T04:20:07.503Z,24.60
2019-02-18T04:22:34.359Z,29.00
2019-02-18T04:25:01.203Z,25.97
2019-02-18T04:27:30.845Z,24.40
2019-02-18T04:29:57.707Z,26.13
2019-02-18T04:32:24.643Z,24.70
2019-02-18T04:34:51.476Z,24.70
2019-02-18T04:37:18.359Z,22.60
2019-02-18T04:39:45.310Z,26.17
2019-02-18T04:42:12.233Z,21.73
2019-02-18T04:44:39.011Z,25.83
2019-02-18T04:47:05.987Z,26.83
2019-02-18T04:49:32.754Z,25.30
2019-02-18T04:51:59.748Z,32.73
2019-02-18T04:54:26.524Z,25.60
2019-02-18T04:56:53.384Z,27.20
2019-02-18T04:59:20.193Z,27.47
2019-02-18T05:01:47.175Z,28.17
2019-02-18T05:04:14.241Z,24.67
2019-02-18T05:06:41.204Z,26.03
2019-02-18T05:09:07.969Z,25.27
2019-02-18T05:11:34.867Z,31.73
2019-02-18T05:14:01.732Z,28.03
2019-02-18T05:16:28.508Z,28.73
2019-02-18T05:18:55.290Z,27.20
2019-02-18T05:21:22.139Z,31.40
2019-02-18T05:23:48.883Z,30.90
2019-02-18T05:26:15.987Z,28.53
2019-02-18T05:28:42.870Z,30.47
2019-02-18T05:31:09.715Z,30.47
2019-02-18T05:33:36.443Z,27.77
2019-02-18T05:36:03.446Z,27.27
2019-02-18T05:38:30.195Z,25.90
2019-02-18T05:40:56.951Z,30.70
2019-02-18T05:43:23.819Z,33.33
2019-02-18T05:45:50.614Z,29.37
2019-02-18T05:48:17.559Z,31.97
2019-02-18T05:50:44.620Z,29.77
2019-02-18T05:53:11.419Z,30.60
2019-02-18T05:55:38.355Z,29.40
2019-02-18T05:58:05.150Z,32.73
2019-02-18T06:00:32.151Z,27.67
2019-02-18T06:02:59.035Z,28.73
2019-02-18T06:05:25.903Z,25.60
2019-02-18T06:07:52.667Z,26.10
2019-02-18T06:10:19.574Z,30.70
2019-02-18T06:12:46.459Z,40.80
2019-02-18T06:15:13.226Z,36.93
2019-02-18T06:17:39.963Z,36.70
2019-02-18T06:20:06.920Z,33.10
2019-02-18T06:22:33.663Z,32.77
2019-02-18T06:25:00.686Z,25.70
2019-02-18T06:27:27.563Z,31.70
2019-02-18T06:29:54.331Z,30.47
2019-02-18T06:32:21.171Z,30.73
2019-02-18T06:34:48.043Z,27.83
2019-02-18T06:37:14.911Z,29.53
2019-02-18T06:39:42.159Z,27.43
2019-02-18T06:42:11.169Z,28.73
2019-02-18T06:45:00.285Z,26.90
2019-02-18T06:47:28.179Z,30.30
2019-02-18T06:49:55.023Z,27.67
2019-02-18T06:52:21.782Z,30.67
2019-02-18T06:54:50.615Z,31.50
2019-02-18T06:57:32.411Z,23.60
2019-02-18T07:00:02.354Z,30.73
2019-02-18T07:02:36.246Z,26.50
2019-02-18T07:05:40.904Z,30.13
2019-02-18T07:08:31.699Z,28.83
2019-02-18T07:11:20.479Z,26.57
2019-02-18T07:13:47.257Z,24.23
2019-02-18T07:16:14.117Z,25.63
2019-02-18T07:18:40.824Z,25.03
2019-02-18T07:21:07.601Z,29.50
2019-02-18T07:23:34.541Z,21.20
2019-02-18T07:26:01.411Z,22.23
2019-02-18T07:28:28.383Z,21.47
2019-02-18T07:30:55.795Z,21.13
2019-02-18T07:33:22.565Z,20.83
2019-02-18T07:35:49.443Z,20.00
2019-02-18T07:38:16.335Z,19.97
2019-02-18T07:40:43.115Z,19.33
2019-02-18T07:43:09.827Z,19.70
2019-02-18T07:45:36.719Z,19.90
2019-02-18T07:48:03.447Z,21.33
2019-02-18T07:50:30.448Z,17.63
2019-02-18T07:52:57.187Z,19.90
2019-02-18T07:55:24.053Z,21.67
2019-02-18T07:57:50.923Z,19.97
2019-02-18T08:00:17.928Z,28.70
2019-02-18T08:02:45.063Z,21.43
2019-02-18T08:05:12.346Z,23.90
2019-02-18T08:07:39.211Z,22.73
2019-02-18T08:10:12.182Z,27.87
2019-02-18T08:12:35.821Z,25.70
2019-02-18T08:15:03.007Z,26.17
2019-02-18T08:17:29.895Z,31.13
2019-02-18T08:19:56.671Z,29.17
2019-02-18T08:22:23.534Z,23.17
2019-02-18T08:24:50.411Z,29.80
2019-02-18T08:27:17.323Z,31.27
2019-02-18T08:29:44.260Z,29.10
2019-02-18T08:32:11.202Z,31.83
2019-02-18T08:34:38.035Z,31.83
2019-02-18T08:37:05.038Z,34.20
2019-02-18T08:39:31.812Z,28.33
2019-02-18T08:41:58.552Z,31.60
2019-02-18T08:44:25.456Z,31.23
2019-02-18T08:46:52.299Z,34.57
2019-02-18T08:49:19.196Z,32.93
2019-02-18T08:51:45.917Z,39.13
2019-02-18T08:54:12.787Z,32.33
2019-02-18T08:56:39.647Z,31.37
2019-02-18T08:59:06.501Z,32.80
2019-02-18T09:01:33.359Z,40.67
2019-02-18T09:04:00.104Z,41.70
2019-02-18T09:06:26.887Z,35.73
2019-02-18T09:08:53.663Z,34.97
2019-02-18T09:11:20.550Z,34.17
2019-02-18T09:13:47.412Z,34.33
2019-02-18T09:16:14.265Z,32.80
2019-02-18T09:18:41.352Z,30.83
2019-02-18T09:21:08.118Z,33.93
2019-02-18T09:23:44.131Z,34.13
2019-02-18T09:26:12.911Z,32.60
2019-02-18T09:28:39.936Z,31.57
2019-02-18T09:31:07.054Z,29.13
2019-02-18T09:33:34.199Z,28.37
2019-02-18T09:36:01.226Z,35.47
2019-02-18T09:38:28.100Z,29.50
2019-02-18T09:40:55.070Z,30.93
2019-02-18T09:43:21.947Z,33.97
2019-02-18T09:45:49.699Z,28.70
2019-02-18T09:48:16.434Z,32.47
2019-02-18T09:50:43.199Z,27.40
2019-02-18T09:53:10.336Z,29.40
2019-02-18T09:55:37.371Z,26.63
2019-02-18T09:58:04.387Z,27.97
2019-02-18T10:00:31.410Z,32.97
2019-02-18T10:02:58.758Z,28.23
2019-02-18T10:05:25.636Z,24.73
2019-02-18T10:07:52.477Z,31.47
2019-02-18T10:10:19.321Z,29.23
2019-02-18T10:12:46.397Z,26.40
2019-02-18T10:15:13.288Z,27.13
2019-02-18T10:17:40.942Z,26.83
2019-02-18T10:20:08.479Z,24.70
2019-02-18T10:22:35.235Z,25.40
2019-02-18T10:25:02.248Z,27.23
2019-02-18T10:27:29.147Z,28.73
2019-02-18T10:29:56.019Z,29.57
2019-02-18T10:32:22.898Z,28.80
2019-02-18T10:34:49.967Z,30.27
2019-02-18T10:37:16.859Z,29.90
2019-02-18T10:39:43.631Z,27.37
2019-02-18T10:42:10.415Z,30.80
2019-02-18T10:44:37.452Z,27.40
2019-02-18T10:47:04.499Z,32.20
2019-02-18T10:49:31.792Z,25.00
2019-02-18T10:51:58.643Z,24.67
2019-02-18T10:54:25.439Z,27.77
2019-02-18T10:56:52.427Z,25.80
2019-02-18T10:59:19.346Z,25.13
2019-02-18T11:01:46.339Z,29.10
2019-02-18T11:04:13.246Z,24.47
2019-02-18T11:06:40.187Z,25.30
2019-02-18T11:09:09.791Z,24.87
2019-02-18T11:11:36.629Z,25.90
2019-02-18T11:14:03.539Z,22.53
2019-02-18T11:16:30.683Z,20.87
2019-02-18T11:18:57.510Z,19.73
2019-02-18T11:21:24.253Z,19.67
2019-02-18T11:23:51.015Z,23.65
2019-02-18T11:26:17.784Z,19.35
2019-02-18T11:28:44.543Z,22.00
2019-02-18T11:31:11.508Z,23.83
2019-02-18T11:33:38.483Z,21.25
2019-02-18T11:36:05.224Z,17.32
2019-02-18T11:38:32.275Z,17.40
2019-02-18T11:40:59.035Z,15.00
2019-02-18T11:43:25.880Z,15.15
2019-02-18T11:45:52.763Z,13.93
2019-02-18T11:48:19.606Z,14.05
2019-02-18T11:50:46.310Z,15.70
2019-02-18T11:53:13.313Z,18.50
2019-02-18T11:55:40.036Z,15.13
2019-02-18T11:58:06.815Z,18.32
2019-02-18T12:00:33.766Z,14.33
2019-02-18T12:03:03.919Z,15.32
2019-02-18T12:05:29.497Z,13.35
2019-02-18T12:07:56.502Z,15.25
2019-02-18T12:10:24.539Z,17.20
2019-02-18T12:12:51.283Z,13.80
2019-02-18T12:15:18.163Z,18.55
2019-02-18T12:17:45.036Z,10.90
2019-02-18T12:20:12.272Z,11.03
2019-02-18T12:22:39.587Z,13.03
2019-02-18T12:25:06.512Z,12.05
2019-02-18T12:27:33.350Z,14.03
2019-02-18T12:30:00.533Z,14.58
2019-02-18T12:32:27.431Z,12.20
2019-02-18T12:34:54.376Z,15.32
2019-02-18T12:37:21.183Z,14.28
2019-02-18T12:39:48.049Z,11.22
2019-02-18T12:42:14.875Z,12.63
2019-02-18T12:44:41.799Z,16.40
2019-02-18T12:47:08.991Z,12.73
2019-02-18T12:49:35.723Z,11.60
2019-02-18T12:52:02.803Z,11.88
2019-02-18T12:54:29.582Z,15.25
2019-02-18T12:56:56.718Z,13.98
2019-02-18T12:59:23.607Z,11.97
2019-02-18T13:01:50.383Z,13.50
2019-02-18T13:04:17.367Z,12.15
2019-02-18T13:06:44.356Z,13.40
2019-02-18T13:09:11.715Z,13.30
2019-02-18T13:11:38.679Z,12.23
2019-02-18T13:14:05.790Z,9.85
2019-02-18T13:16:32.655Z,11.85
2019-02-18T13:18:59.427Z,10.18
2019-02-18T13:21:26.186Z,12.30
2019-02-18T13:23:53.207Z,14.58
2019-02-18T13:26:20.315Z,11.30
2019-02-18T13:28:47.272Z,14.60
2019-02-18T13:31:14.435Z,10.43
2019-02-18T13:33:41.283Z,11.18
2019-02-18T13:36:13.391Z,15.90
2019-02-18T13:38:40.404Z,10.25
2019-02-18T13:41:07.449Z,11.35
2019-02-18T13:43:34.363Z,12.68
2019-02-18T13:46:01.580Z,13.08
2019-02-18T13:48:28.924Z,12.37
2019-02-18T13:50:55.981Z,11.50
2019-02-18T13:53:22.887Z,12.05
2019-02-18T13:55:49.660Z,16.30
2019-02-18T13:58:16.567Z,10.40
2019-02-18T14:00:43.543Z,10.50
2019-02-18T14:03:10.359Z,11.53
2019-02-18T14:05:37.648Z,15.20
2019-02-18T14:08:04.726Z,15.53
2019-02-18T14:10:31.775Z,11.20
2019-02-18T14:12:58.571Z,11.43
2019-02-18T14:15:25.457Z,13.20
2019-02-18T14:17:54.263Z,14.03
2019-02-18T14:20:21.295Z,11.77
2019-02-18T14:22:48.320Z,14.03
2019-02-18T14:25:15.779Z,14.53
2019-02-18T14:27:42.658Z,14.83
2019-02-18T14:30:11.163Z,14.60
2019-02-18T14:32:38.186Z,14.30
2019-02-18T14:35:26.935Z,12.80
2019-02-18T14:37:53.797Z,15.37
2019-02-18T14:40:21.611Z,12.33
2019-02-18T14:42:48.483Z,19.93
2019-02-18T14:45:15.698Z,11.40
2019-02-18T14:47:43.049Z,15.43
2019-02-18T14:50:10.237Z,13.13
2019-02-18T14:52:37.211Z,13.47
2019-02-18T14:55:04.745Z,13.03
2019-02-18T14:57:31.489Z,16.10
2019-02-18T14:59:58.398Z,13.73
2019-02-18T15:02:25.491Z,18.23
2019-02-18T15:04:52.509Z,14.37
2019-02-18T15:07:19.569Z,12.87
2019-02-18T15:09:46.467Z,14.80
2019-02-18T15:12:13.885Z,20.80
2019-02-18T15:14:40.681Z,14.53
2019-02-18T15:17:07.728Z,16.93
2019-02-18T15:19:34.658Z,16.10
2019-02-18T15:22:01.622Z,16.00
2019-02-18T15:24:28.596Z,13.23
2019-02-18T15:26:55.687Z,19.43
2019-02-18T15:29:22.535Z,17.80
2019-02-18T15:31:49.909Z,17.23
2019-02-18T15:34:16.916Z,15.07
2019-02-18T15:36:43.944Z,17.67
2019-02-18T15:39:11.030Z,15.77
2019-02-18T15:41:38.072Z,19.53
2019-02-18T15:44:05.280Z,21.73
2019-02-18T15:46:32.307Z,16.67
2019-02-18T15:48:59.798Z,17.40
2019-02-18T15:51:27.360Z,18.77
2019-02-18T15:53:54.184Z,19.97
2019-02-18T15:56:21.569Z,17.17
2019-02-18T15:58:48.579Z,18.53
2019-02-18T16:01:15.837Z,19.00
2019-02-18T16:03:43.561Z,20.63
2019-02-18T16:06:12.779Z,19.57
2019-02-18T16:08:39.874Z,18.17
2019-02-18T16:11:06.789Z,19.73
2019-02-18T16:13:33.580Z,17.07
2019-02-18T16:16:00.590Z,18.00
2019-02-18T16:18:27.384Z,17.27
2019-02-18T16:20:54.111Z,19.43
2019-02-18T16:23:20.869Z,28.30
2019-02-18T16:25:48.303Z,31.90
2019-02-18T16:28:15.071Z,30.50
2019-02-18T16:30:41.859Z,30.40
2019-02-18T16:33:08.678Z,28.37
2019-02-18T16:35:37.979Z,22.53
2019-02-18T16:38:04.732Z,24.90
2019-02-18T16:40:32.143Z,28.97
2019-02-18T16:42:59.656Z,28.33
2019-02-18T16:45:26.625Z,46.47
2019-02-18T16:47:53.386Z,35.30
2019-02-18T16:50:20.230Z,36.63
2019-02-18T16:52:47.153Z,34.30
2019-02-18T16:55:14.142Z,23.87
2019-02-18T16:57:41.083Z,24.70
2019-02-18T17:00:18.035Z,22.20
2019-02-18T17:02:44.935Z,22.27
2019-02-18T17:05:11.802Z,17.23
2019-02-18T17:07:38.729Z,22.30
2019-02-18T17:10:06.247Z,21.10
2019-02-18T17:12:33.106Z,14.73
2019-02-18T17:15:00.272Z,22.33
2019-02-18T17:17:27.311Z,20.37
2019-02-18T17:19:54.386Z,20.70
2019-02-18T17:22:21.201Z,20.07
2019-02-18T17:24:48.084Z,19.00
2019-02-18T17:27:15.042Z,25.67
2019-02-18T17:29:42.023Z,21.03
2019-02-18T17:32:08.787Z,22.10
2019-02-18T17:34:35.823Z,23.53
2019-02-18T17:37:02.835Z,20.67
2019-02-18T17:39:29.639Z,17.57
2019-02-18T17:41:56.475Z,18.73
2019-02-18T17:44:23.443Z,23.77
2019-02-18T17:46:50.373Z,20.17
2019-02-18T17:49:17.474Z,22.60
2019-02-18T17:51:44.355Z,21.77
2019-02-18T17:54:11.679Z,19.77
2019-02-18T17:56:38.431Z,23.47
2019-02-18T17:59:05.439Z,23.43
2019-02-18T18:01:32.371Z,22.63
2019-02-18T18:03:59.171Z,19.77
2019-02-18T18:06:26.043Z,21.17
2019-02-18T18:08:52.807Z,20.27
2019-02-18T18:11:19.798Z,19.47
2019-02-18T18:13:46.922Z,24.37
2019-02-18T18:16:13.783Z,22.87
2019-02-18T18:18:40.535Z,19.70
2019-02-18T18:21:07.272Z,17.17
2019-02-18T18:23:34.231Z,19.37
2019-02-18T18:26:01.239Z,24.33
2019-02-18T18:28:28.095Z,19.43
2019-02-18T18:30:55.283Z,21.60
2019-02-18T18:33:22.044Z,23.27
2019-02-18T18:35:48.894Z,23.83
2019-02-18T18:38:15.647Z,24.97
2019-02-18T18:40:42.386Z,22.63
2019-02-18T18:43:09.271Z,26.83
2019-02-18T18:45:36.154Z,28.30
2019-02-18T18:48:03.151Z,27.80
2019-02-18T18:50:30.354Z,32.67
2019-02-18T18:52:57.115Z,23.77
2019-02-18T18:55:23.984Z,25.23
2019-02-18T18:57:51.078Z,23.43
2019-02-18T19:00:22.471Z,22.53
2019-02-18T19:02:49.346Z,21.70
2019-02-18T19:05:16.706Z,25.67
2019-02-18T19:07:43.550Z,20.57
2019-02-18T19:10:10.571Z,23.53
2019-02-18T19:12:37.463Z,22.97
2019-02-18T19:15:04.752Z,21.20
2019-02-18T19:17:31.728Z,21.57
2019-02-18T19:19:58.580Z,20.77
2019-02-18T19:22:25.855Z,24.77
2019-02-18T19:24:52.701Z,20.77
2019-02-18T19:27:19.407Z,21.20
2019-02-18T19:29:46.259Z,22.83
2019-02-18T19:32:13.007Z,20.93
2019-02-18T19:34:39.768Z,22.13
2019-02-18T19:37:06.590Z,23.90
2019-02-18T19:39:33.311Z,22.23
2019-02-18T19:42:00.358Z,26.37
2019-02-18T19:44:27.099Z,29.23
2019-02-18T19:46:53.807Z,26.57
2019-02-18T19:49:20.564Z,24.60
2019-02-18T19:51:47.315Z,28.00
2019-02-18T19:54:14.027Z,24.67
2019-02-18T19:56:40.795Z,21.80
2019-02-18T19:59:08.358Z,21.50
2019-02-18T20:01:35.473Z,22.63
2019-02-18T20:04:02.441Z,26.27
2019-02-18T20:06:29.395Z,23.97
2019-02-18T20:08:56.285Z,22.97
2019-02-18T20:11:23.352Z,26.67
2019-02-18T20:13:58.567Z,26.43
2019-02-18T20:16:19.051Z,24.17
2019-02-18T20:18:45.942Z,31.27
2019-02-18T20:21:12.850Z,25.67
2019-02-18T20:23:39.712Z,23.90
2019-02-18T20:26:06.567Z,24.37
2019-02-18T20:28:33.619Z,24.57
2019-02-18T20:31:00.475Z,23.67
2019-02-18T20:33:27.741Z,25.00
2019-02-18T20:35:54.619Z,24.63
2019-02-18T20:38:21.715Z,29.10
2019-02-18T20:40:48.857Z,29.67
2019-02-18T20:43:15.834Z,25.00
2019-02-18T20:45:42.907Z,30.13
2019-02-18T20:48:10.292Z,27.42
2019-02-18T20:50:37.507Z,25.27
2019-02-18T20:53:04.335Z,28.83
2019-02-18T20:55:31.355Z,28.17
2019-02-18T20:57:58.259Z,25.17
2019-02-18T21:00:25.227Z,28.97
2019-02-18T21:02:52.172Z,32.77
2019-02-18T21:05:18.921Z,26.20
2019-02-18T21:07:46.004Z,36.83
2019-02-18T21:10:13.999Z,31.10
2019-02-18T21:12:41.007Z,29.40
2019-02-18T21:15:08.219Z,31.80
2019-02-18T21:17:34.978Z,30.30
2019-02-18T21:20:02.142Z,28.57
2019-02-18T21:22:29.051Z,24.73
2019-02-18T21:24:55.789Z,23.67
2019-02-18T21:27:23.104Z,32.50
2019-02-18T21:29:49.969Z,24.50
2019-02-18T21:32:16.703Z,24.27
2019-02-18T21:34:43.570Z,27.13
2019-02-18T21:37:10.419Z,23.23
2019-02-18T21:39:37.517Z,23.30
2019-02-18T21:42:04.319Z,32.15
2019-02-18T21:44:31.563Z,27.20
2019-02-18T21:46:58.504Z,30.87
2019-02-18T21:49:25.229Z,28.03
2019-02-18T21:51:52.499Z,27.60
2019-02-18T21:54:19.564Z,26.57
2019-02-18T21:56:46.451Z,27.93
2019-02-18T21:59:13.613Z,22.17
2019-02-18T22:01:41.450Z,24.00
2019-02-18T22:04:08.692Z,25.90
2019-02-18T22:06:35.547Z,23.10
2019-02-18T22:09:03.727Z,25.00
2019-02-18T22:11:30.695Z,24.33
2019-02-18T22:13:57.526Z,21.80
2019-02-18T22:16:24.278Z,22.67
2019-02-18T22:18:51.255Z,25.27
2019-02-18T22:21:18.232Z,25.57
2019-02-18T22:23:45.178Z,20.73
2019-02-18T22:26:12.027Z,21.23
2019-02-18T22:28:39.015Z,16.87
2019-02-18T22:31:05.880Z,16.13
2019-02-18T22:33:32.596Z,15.87
2019-02-18T22:35:59.384Z,15.97
2019-02-18T22:38:26.345Z,16.07
2019-02-18T22:40:53.219Z,14.50
2019-02-18T22:43:20.509Z,13.47
2019-02-18T22:45:47.544Z,12.40
2019-02-18T22:48:14.283Z,14.50
2019-02-18T22:50:41.040Z,14.27
2019-02-18T22:53:07.866Z,15.83
2019-02-18T22:55:34.611Z,14.33
2019-02-18T22:58:01.506Z,15.53
2019-02-18T23:00:45.088Z,15.67
2019-02-18T23:03:12.344Z,17.67
2019-02-18T23:05:39.425Z,17.10
2019-02-18T23:08:06.618Z,20.73
2019-02-18T23:10:33.344Z,18.47
2019-02-18T23:13:00.345Z,17.07
2019-02-18T23:15:27.461Z,18.87
2019-02-18T23:17:54.687Z,15.90
2019-02-18T23:20:21.679Z,15.83
2019-02-18T23:22:48.745Z,14.70
2019-02-18T23:25:15.795Z,17.83
2019-02-18T23:27:42.966Z,16.23
2019-02-18T23:30:09.777Z,14.70
2019-02-18T23:32:36.560Z,17.50
2019-02-18T23:35:03.539Z,15.37
2019-02-18T23:37:30.943Z,12.77
2019-02-18T23:39:57.712Z,14.23
2019-02-18T23:42:24.764Z,16.57
2019-02-18T23:44:59.074Z,14.17
2019-02-18T23:47:20.235Z,14.77
2019-02-18T23:49:47.127Z,15.63
2019-02-18T23:52:14.002Z,12.07
2019-02-18T23:54:40.767Z,14.57
2019-02-18T23:57:07.586Z,14.53
2019-02-18T23:59:35.795Z,11.57
